createdAt,value
2017-09-19T00:00:35.049Z,3.43
2017-09-19T00:03:02.608Z,3.27
2017-09-19T00:05:30.074Z,3.53
2017-09-19T00:07:57.543Z,4.00
2017-09-19T00:10:25.006Z,3.50
2017-09-19T00:12:53.241Z,3.53
2017-09-19T00:15:20.710Z,3.00
2017-09-19T00:17:48.161Z,2.80
2017-09-19T00:20:15.722Z,2.97
2017-09-19T00:22:45.564Z,4.53
2017-09-19T00:25:13.017Z,3.33
2017-09-19T00:27:41.247Z,3.00
2017-09-19T00:30:08.698Z,3.20
2017-09-19T00:32:36.150Z,3.90
2017-09-19T00:35:03.615Z,3.27
2017-09-19T00:37:31.067Z,3.30
2017-09-19T00:39:58.528Z,3.90
2017-09-19T00:42:25.977Z,3.70
2017-09-19T00:44:53.434Z,4.20
2017-09-19T00:47:20.894Z,3.47
2017-09-19T00:49:48.386Z,3.73
2017-09-19T00:52:15.859Z,3.67
2017-09-19T00:54:43.399Z,3.17
2017-09-19T00:57:10.861Z,2.67
2017-09-19T00:59:38.319Z,2.90
2017-09-19T01:02:06.555Z,3.17
2017-09-19T01:04:33.997Z,3.77
2017-09-19T01:07:01.515Z,3.73
2017-09-19T01:09:28.950Z,3.60
2017-09-19T01:11:56.405Z,3.53
2017-09-19T01:14:23.849Z,3.63
2017-09-19T01:16:51.307Z,3.70
2017-09-19T01:19:18.791Z,4.27
2017-09-19T01:21:46.245Z,4.10
2017-09-19T01:24:13.699Z,4.20
2017-09-19T01:26:41.154Z,4.30
2017-09-19T01:29:08.616Z,5.10
2017-09-19T01:31:36.062Z,3.70
2017-09-19T01:34:03.522Z,3.73
2017-09-19T01:36:31.733Z,3.30
2017-09-19T01:38:59.256Z,4.20
2017-09-19T01:41:28.217Z,3.80
2017-09-19T01:43:55.699Z,3.67
2017-09-19T01:46:23.149Z,3.80
2017-09-19T01:48:50.609Z,4.10
2017-09-19T01:51:18.058Z,3.47
2017-09-19T01:53:45.520Z,3.73
2017-09-19T01:56:12.974Z,3.75
2017-09-19T01:58:40.437Z,4.50
2017-09-19T02:01:07.889Z,4.20
2017-09-19T02:03:35.350Z,4.37
2017-09-19T02:06:02.803Z,3.60
2017-09-19T02:08:30.369Z,3.28
2017-09-19T02:10:57.936Z,4.07
2017-09-19T02:13:25.398Z,5.03
2017-09-19T02:15:52.941Z,5.60
2017-09-19T02:18:20.406Z,5.70
2017-09-19T02:20:47.861Z,5.57
2017-09-19T02:23:15.317Z,6.60
2017-09-19T02:25:42.765Z,6.68
2017-09-19T02:28:10.213Z,7.05
2017-09-19T02:30:37.676Z,6.95
2017-09-19T02:33:09.576Z,6.20
2017-09-19T02:35:39.791Z,5.32
2017-09-19T02:38:08.014Z,4.20
2017-09-19T02:40:38.179Z,4.72
2017-09-19T02:43:06.438Z,5.18
2017-09-19T02:45:33.893Z,4.07
2017-09-19T02:48:01.357Z,5.05
2017-09-19T02:50:28.827Z,5.47
2017-09-19T02:52:56.571Z,4.93
2017-09-19T02:55:24.043Z,6.20
2017-09-19T02:57:51.485Z,5.87
2017-09-19T03:00:18.950Z,5.45
2017-09-19T03:02:46.406Z,4.60
2017-09-19T03:05:17.330Z,5.40
2017-09-19T03:07:44.786Z,3.20
2017-09-19T03:10:12.249Z,4.82
2017-09-19T03:12:39.821Z,4.70
2017-09-19T03:15:07.282Z,4.30
2017-09-19T03:17:34.738Z,3.50
2017-09-19T03:20:02.293Z,2.85
2017-09-19T03:22:31.258Z,3.37
2017-09-19T03:24:58.722Z,3.87
2017-09-19T03:27:26.181Z,3.17
2017-09-19T03:29:53.646Z,2.80
2017-09-19T03:32:21.098Z,3.07
2017-09-19T03:34:48.550Z,3.97
2017-09-19T03:37:16.003Z,3.67
2017-09-19T03:39:43.458Z,3.23
2017-09-19T03:42:10.910Z,3.77
2017-09-19T03:44:38.370Z,3.50
2017-09-19T03:47:05.814Z,3.00
2017-09-19T03:49:33.319Z,3.15
2017-09-19T03:52:00.856Z,3.30
2017-09-19T03:54:30.151Z,3.47
2017-09-19T03:56:57.602Z,4.20
2017-09-19T03:59:25.045Z,4.07
2017-09-19T04:01:53.453Z,3.67
2017-09-19T04:04:21.018Z,3.30
2017-09-19T04:06:48.502Z,3.70
2017-09-19T04:09:16.738Z,4.53
2017-09-19T04:11:44.296Z,4.07
2017-09-19T04:14:11.754Z,3.35
2017-09-19T04:16:39.210Z,3.50
2017-09-19T04:19:06.682Z,3.65
2017-09-19T04:21:34.142Z,2.77
2017-09-19T04:24:01.623Z,3.62
2017-09-19T04:26:29.094Z,3.45
2017-09-19T04:28:56.537Z,3.03
2017-09-19T04:31:24.006Z,2.90
2017-09-19T04:33:51.457Z,3.00
2017-09-19T04:36:18.922Z,2.92
2017-09-19T04:38:46.434Z,2.67
2017-09-19T04:41:13.905Z,2.60
2017-09-19T04:43:41.360Z,2.17
2017-09-19T04:46:08.810Z,2.97
2017-09-19T04:48:36.265Z,2.00
2017-09-19T04:51:03.723Z,3.00
2017-09-19T04:53:31.183Z,2.50
2017-09-19T04:55:58.722Z,3.40
2017-09-19T04:58:26.194Z,3.50
2017-09-19T05:00:54.408Z,3.53
2017-09-19T05:03:21.861Z,4.30
2017-09-19T05:05:49.305Z,4.20
2017-09-19T05:08:17.529Z,5.00
2017-09-19T05:10:44.978Z,6.00
2017-09-19T05:13:12.437Z,4.80
2017-09-19T05:15:39.892Z,5.20
2017-09-19T05:18:07.351Z,5.53
2017-09-19T05:20:34.802Z,5.73
2017-09-19T05:23:02.258Z,5.50
2017-09-19T05:25:29.709Z,5.00
2017-09-19T05:27:57.166Z,4.70
2017-09-19T05:30:24.623Z,4.00
2017-09-19T05:32:52.085Z,3.93
2017-09-19T05:35:19.538Z,4.87
2017-09-19T05:37:47.029Z,3.90
2017-09-19T05:40:14.477Z,3.45
2017-09-19T05:42:42.038Z,4.15
2017-09-19T05:45:09.481Z,3.70
2017-09-19T05:47:36.940Z,5.23
2017-09-19T05:50:04.390Z,3.77
2017-09-19T05:52:31.853Z,4.20
2017-09-19T05:54:59.306Z,4.30
2017-09-19T05:57:26.777Z,3.90
2017-09-19T05:59:54.230Z,5.05
2017-09-19T06:02:21.687Z,4.22
2017-09-19T06:04:49.250Z,3.72
2017-09-19T06:07:16.923Z,4.03
2017-09-19T06:09:45.893Z,4.20
2017-09-19T06:12:13.353Z,4.80
2017-09-19T06:14:40.813Z,4.75
2017-09-19T06:17:08.253Z,5.30
2017-09-19T06:19:35.748Z,5.10
2017-09-19T06:22:03.195Z,4.67
2017-09-19T06:24:30.753Z,4.50
2017-09-19T06:26:58.305Z,6.30
2017-09-19T06:29:25.762Z,6.23
2017-09-19T06:31:53.213Z,6.53
2017-09-19T06:34:20.677Z,5.28
2017-09-19T06:36:48.134Z,5.60
2017-09-19T06:39:15.594Z,4.90
2017-09-19T06:41:43.045Z,4.33
2017-09-19T06:44:10.505Z,2.90
2017-09-19T06:46:37.971Z,3.20
2017-09-19T06:49:05.429Z,3.00
2017-09-19T06:51:32.882Z,2.95
2017-09-19T06:54:00.362Z,3.30
2017-09-19T06:56:28.581Z,3.70
2017-09-19T06:58:56.042Z,3.35
2017-09-19T07:01:23.509Z,3.67
2017-09-19T07:03:51.077Z,3.25
2017-09-19T07:06:18.533Z,3.30
2017-09-19T07:08:45.993Z,4.00
2017-09-19T07:11:13.458Z,3.80
2017-09-19T07:13:40.921Z,3.53
2017-09-19T07:16:08.381Z,3.63
2017-09-19T07:18:35.837Z,3.37
2017-09-19T07:21:03.298Z,3.70
2017-09-19T07:23:30.842Z,3.57
2017-09-19T07:25:58.316Z,3.03
2017-09-19T07:28:26.537Z,2.90
2017-09-19T07:30:54.034Z,3.23
2017-09-19T07:33:21.489Z,3.60
2017-09-19T07:35:48.957Z,3.30
2017-09-19T07:38:16.405Z,4.03
2017-09-19T07:40:43.873Z,4.00
2017-09-19T07:43:12.097Z,4.27
2017-09-19T07:45:39.569Z,4.43
2017-09-19T07:48:07.022Z,3.40
2017-09-19T07:50:34.487Z,2.90
2017-09-19T07:53:01.931Z,3.23
2017-09-19T07:55:29.414Z,3.30
2017-09-19T07:57:56.870Z,4.33
2017-09-19T08:00:24.422Z,4.53
2017-09-19T08:02:51.890Z,5.27
2017-09-19T08:05:19.338Z,4.53
2017-09-19T08:07:46.802Z,4.83
2017-09-19T08:10:14.253Z,4.50
2017-09-19T08:12:41.815Z,4.80
2017-09-19T08:15:09.282Z,4.27
2017-09-19T08:17:36.747Z,4.60
2017-09-19T08:20:04.198Z,5.40
2017-09-19T08:22:31.743Z,3.63
2017-09-19T08:24:59.204Z,3.90
2017-09-19T08:27:26.662Z,4.47
2017-09-19T08:29:54.218Z,3.80
2017-09-19T08:32:21.657Z,4.50
2017-09-19T08:34:49.126Z,4.80
2017-09-19T08:37:16.592Z,5.30
2017-09-19T08:39:44.152Z,4.83
2017-09-19T08:42:11.595Z,5.40
2017-09-19T08:44:39.055Z,5.20
2017-09-19T08:47:06.506Z,4.20
2017-09-19T08:49:33.962Z,3.30
2017-09-19T08:52:01.410Z,3.57
2017-09-19T08:54:28.871Z,3.33
2017-09-19T08:56:56.326Z,3.90
2017-09-19T08:59:23.897Z,4.27
2017-09-19T09:01:51.349Z,4.10
2017-09-19T09:04:18.806Z,3.47
2017-09-19T09:06:46.258Z,2.27
2017-09-19T09:09:13.724Z,2.20
2017-09-19T09:11:41.178Z,2.30
2017-09-19T09:14:08.634Z,2.43
2017-09-19T09:16:36.193Z,2.73
2017-09-19T09:19:03.657Z,3.27
2017-09-19T09:21:31.104Z,2.33
2017-09-19T09:23:58.673Z,2.50
2017-09-19T09:26:26.134Z,3.33
2017-09-19T09:28:53.597Z,2.83
2017-09-19T09:31:21.110Z,2.20
2017-09-19T09:33:48.574Z,1.70
2017-09-19T09:36:16.029Z,1.87
2017-09-19T09:38:43.486Z,1.10
2017-09-19T09:41:10.938Z,1.77
2017-09-19T09:43:38.394Z,1.90
2017-09-19T09:46:05.855Z,1.50
2017-09-19T09:48:33.309Z,1.60
2017-09-19T09:51:00.801Z,1.97
2017-09-19T09:53:28.266Z,3.40
2017-09-19T09:55:55.722Z,3.40
2017-09-19T09:58:23.176Z,3.30
2017-09-19T10:00:50.636Z,3.20
2017-09-19T10:03:18.185Z,3.23
2017-09-19T10:05:45.647Z,3.43
2017-09-19T10:08:13.103Z,3.90
2017-09-19T10:10:40.549Z,4.10
2017-09-19T10:13:08.014Z,4.57
2017-09-19T10:15:35.470Z,4.40
2017-09-19T10:18:03.026Z,5.73
2017-09-19T10:20:30.482Z,5.10
2017-09-19T10:22:58.037Z,5.60
2017-09-19T10:25:25.599Z,5.43
2017-09-19T10:27:53.053Z,6.23
2017-09-19T10:30:20.514Z,6.67
2017-09-19T10:32:47.974Z,6.30
2017-09-19T10:35:15.437Z,5.53
2017-09-19T10:37:42.893Z,6.17
2017-09-19T10:40:10.352Z,7.50
2017-09-19T10:42:37.921Z,10.17
2017-09-19T10:45:06.874Z,8.90
2017-09-19T10:47:34.341Z,8.07
2017-09-19T10:50:01.790Z,7.50
2017-09-19T10:52:29.258Z,7.37
2017-09-19T10:54:56.716Z,6.90
2017-09-19T10:57:24.177Z,5.10
2017-09-19T10:59:51.630Z,4.43
2017-09-19T11:02:19.202Z,4.53
2017-09-19T11:04:46.661Z,4.17
2017-09-19T11:07:14.896Z,4.00
2017-09-19T11:09:42.353Z,3.10
2017-09-19T11:12:09.811Z,3.17
2017-09-19T11:14:37.259Z,4.43
2017-09-19T11:17:04.850Z,4.10
2017-09-19T11:19:32.301Z,3.97
2017-09-19T11:21:59.876Z,4.40
2017-09-19T11:24:27.341Z,5.70
2017-09-19T11:26:54.786Z,5.00
2017-09-19T11:29:22.251Z,5.03
2017-09-19T11:31:51.223Z,5.23
2017-09-19T11:34:18.677Z,5.13
2017-09-19T11:36:46.150Z,5.47
2017-09-19T11:39:13.618Z,5.30
2017-09-19T11:41:41.153Z,4.67
2017-09-19T11:44:08.718Z,6.27
2017-09-19T11:46:36.174Z,5.53
2017-09-19T11:49:03.742Z,6.13
2017-09-19T11:51:31.190Z,5.23
2017-09-19T11:53:58.642Z,7.03
2017-09-19T11:56:26.099Z,6.40
2017-09-19T11:58:53.561Z,5.33
2017-09-19T12:01:21.019Z,4.57
2017-09-19T12:03:48.481Z,4.60
2017-09-19T12:06:15.937Z,4.07
2017-09-19T12:08:43.501Z,4.40
2017-09-19T12:11:10.958Z,8.10
2017-09-19T12:13:38.418Z,4.20
2017-09-19T12:16:05.871Z,4.43
2017-09-19T12:18:33.330Z,4.97
2017-09-19T12:21:00.792Z,10.57
2017-09-19T12:23:28.242Z,8.17
2017-09-19T12:25:55.701Z,5.30
2017-09-19T12:28:23.255Z,6.03
2017-09-19T12:30:50.704Z,6.00
2017-09-19T12:33:18.170Z,5.13
2017-09-19T12:35:45.625Z,4.70
2017-09-19T12:38:13.086Z,3.50
2017-09-19T12:40:40.537Z,3.27
2017-09-19T12:43:08.016Z,4.10
2017-09-19T12:45:36.234Z,3.30
2017-09-19T12:48:03.690Z,3.30
2017-09-19T12:50:31.150Z,3.60
2017-09-19T12:52:58.606Z,4.93
2017-09-19T12:55:26.065Z,3.80
2017-09-19T12:57:53.513Z,4.00
2017-09-19T13:00:20.985Z,3.73
2017-09-19T13:02:48.443Z,3.53
2017-09-19T13:05:15.905Z,4.07
2017-09-19T13:07:43.341Z,3.20
2017-09-19T13:10:10.839Z,3.80
2017-09-19T13:12:38.290Z,3.20
2017-09-19T13:15:05.754Z,3.80
2017-09-19T13:17:33.197Z,3.03
2017-09-19T13:20:00.657Z,3.63
2017-09-19T13:22:28.111Z,3.90
2017-09-19T13:24:55.666Z,3.80
2017-09-19T13:27:23.221Z,3.40
2017-09-19T13:29:50.693Z,3.67
2017-09-19T13:32:30.122Z,3.33
2017-09-19T13:34:57.581Z,3.50
2017-09-19T13:37:25.021Z,3.20
2017-09-19T13:39:52.484Z,4.03
2017-09-19T13:42:19.926Z,3.50
2017-09-19T13:44:47.406Z,2.60
2017-09-19T13:47:14.974Z,3.90
2017-09-19T13:49:42.525Z,3.20
2017-09-19T13:52:10.086Z,3.00
2017-09-19T13:54:37.550Z,3.30
2017-09-19T13:57:05.008Z,2.97
2017-09-19T13:59:32.459Z,2.50
2017-09-19T14:01:59.923Z,2.50
2017-09-19T14:04:27.383Z,2.80
2017-09-19T14:06:54.843Z,3.50
2017-09-19T14:09:22.385Z,3.10
2017-09-19T14:11:49.837Z,3.30
2017-09-19T14:14:17.293Z,2.60
2017-09-19T14:16:44.757Z,2.70
2017-09-19T14:19:12.215Z,3.57
2017-09-19T14:21:39.674Z,3.53
2017-09-19T14:24:07.135Z,3.50
2017-09-19T14:26:36.102Z,2.70
2017-09-19T14:29:03.553Z,2.73
2017-09-19T14:31:31.217Z,2.60
2017-09-19T14:33:58.689Z,2.97
2017-09-19T14:36:26.162Z,3.67
2017-09-19T14:38:53.721Z,3.03
2017-09-19T14:41:21.181Z,3.50
2017-09-19T14:43:48.625Z,3.10
2017-09-19T14:46:16.081Z,3.47
2017-09-19T14:48:43.529Z,2.63
2017-09-19T14:51:10.994Z,2.30
2017-09-19T14:53:38.441Z,1.97
2017-09-19T14:56:05.919Z,3.30
2017-09-19T14:58:33.375Z,2.10
2017-09-19T15:01:00.825Z,2.57
2017-09-19T15:03:29.800Z,2.27
2017-09-19T15:05:57.237Z,1.80
2017-09-19T15:08:24.703Z,2.10
2017-09-19T15:10:52.154Z,2.33
2017-09-19T15:13:19.602Z,1.73
2017-09-19T15:15:47.055Z,1.83
2017-09-19T15:18:14.553Z,2.00
2017-09-19T15:20:42.128Z,2.20
2017-09-19T15:23:09.589Z,4.83
2017-09-19T15:25:37.030Z,2.73
2017-09-19T15:28:04.578Z,2.53
2017-09-19T15:30:32.137Z,2.20
2017-09-19T15:32:59.711Z,2.20
2017-09-19T15:35:27.168Z,2.87
2017-09-19T15:37:54.622Z,2.63
2017-09-19T15:40:22.083Z,3.40
2017-09-19T15:42:49.550Z,4.00
2017-09-19T15:45:17.768Z,3.57
2017-09-19T15:47:45.249Z,3.50
2017-09-19T15:50:12.721Z,3.60
2017-09-19T15:52:40.179Z,3.80
2017-09-19T15:55:07.651Z,4.67
2017-09-19T15:57:35.873Z,4.87
2017-09-19T16:00:03.330Z,3.97
2017-09-19T16:02:30.782Z,4.90
2017-09-19T16:04:58.271Z,5.67
2017-09-19T16:07:25.723Z,5.23
2017-09-19T16:09:53.181Z,7.00
2017-09-19T16:12:20.632Z,7.90
2017-09-19T16:14:48.085Z,5.43
2017-09-19T16:17:15.538Z,5.07
2017-09-19T16:19:42.998Z,4.57
2017-09-19T16:22:10.458Z,4.90
2017-09-19T16:24:37.919Z,4.47
2017-09-19T16:27:05.378Z,4.70
2017-09-19T16:29:32.842Z,5.10
2017-09-19T16:32:00.397Z,4.43
2017-09-19T16:34:27.860Z,4.13
2017-09-19T16:36:55.310Z,6.00
2017-09-19T16:39:22.872Z,5.10
2017-09-19T16:41:50.318Z,5.87
2017-09-19T16:44:17.773Z,6.27
2017-09-19T16:46:45.234Z,6.47
2017-09-19T16:49:12.687Z,6.30
2017-09-19T16:51:40.151Z,5.40
2017-09-19T16:54:07.615Z,6.27
2017-09-19T16:56:35.062Z,6.00
2017-09-19T16:59:02.630Z,6.07
2017-09-19T17:01:30.104Z,9.17
2017-09-19T17:03:57.558Z,5.87
2017-09-19T17:06:25.407Z,6.30
2017-09-19T17:08:52.847Z,6.90
2017-09-19T17:11:20.305Z,5.90
2017-09-19T17:13:47.757Z,6.83
2017-09-19T17:16:15.214Z,7.77
2017-09-19T17:18:42.665Z,6.50
2017-09-19T17:21:10.282Z,7.07
2017-09-19T17:23:38.622Z,7.47
2017-09-19T17:26:07.690Z,6.73
2017-09-19T17:28:35.296Z,7.97
2017-09-19T17:31:02.814Z,8.05
2017-09-19T17:33:30.364Z,7.80
2017-09-19T17:35:57.818Z,7.23
2017-09-19T17:38:25.322Z,7.10
2017-09-19T17:40:52.833Z,8.63
2017-09-19T17:43:20.316Z,10.27
2017-09-19T17:45:47.825Z,8.60
2017-09-19T17:48:16.057Z,5.90
2017-09-19T17:50:43.526Z,8.67
2017-09-19T17:53:10.986Z,6.53
2017-09-19T17:55:38.446Z,10.07
2017-09-19T17:58:05.907Z,9.40
2017-09-19T18:00:33.358Z,8.20
2017-09-19T18:03:01.617Z,12.63
2017-09-19T18:05:29.087Z,10.23
2017-09-19T18:07:56.646Z,8.90
2017-09-19T18:10:24.206Z,12.23
2017-09-19T18:12:51.672Z,10.20
2017-09-19T18:15:19.217Z,11.60
2017-09-19T18:17:46.678Z,9.30
2017-09-19T18:20:14.138Z,8.20
2017-09-19T18:22:41.597Z,8.97
2017-09-19T18:25:09.857Z,10.10
2017-09-19T18:27:37.349Z,10.33
2017-09-19T18:30:05.605Z,12.30
2017-09-19T18:32:33.837Z,11.77
2017-09-19T18:35:01.313Z,11.87
2017-09-19T18:37:28.879Z,11.73
2017-09-19T18:39:56.347Z,12.53
2017-09-19T18:42:23.898Z,17.50
2017-09-19T18:44:51.365Z,15.90
2017-09-19T18:47:18.821Z,14.90
2017-09-19T18:49:46.386Z,14.87
2017-09-19T18:52:13.846Z,11.83
2017-09-19T18:54:41.309Z,10.83
2017-09-19T18:57:09.535Z,10.17
2017-09-19T18:59:37.009Z,12.03
2017-09-19T19:02:04.469Z,12.83
2017-09-19T19:04:32.037Z,12.87
2017-09-19T19:06:59.501Z,9.50
2017-09-19T19:09:28.051Z,10.77
2017-09-19T19:11:55.521Z,9.90
2017-09-19T19:14:23.092Z,11.33
2017-09-19T19:16:50.553Z,11.67
2017-09-19T19:19:18.032Z,10.80
2017-09-19T19:21:46.254Z,10.57
2017-09-19T19:24:13.729Z,10.75
2017-09-19T19:26:41.198Z,9.10
2017-09-19T19:29:08.671Z,8.47
2017-09-19T19:31:36.903Z,9.03
2017-09-19T19:34:04.394Z,9.60
2017-09-19T19:36:31.909Z,6.63
2017-09-19T19:38:59.362Z,8.10
2017-09-19T19:41:26.846Z,7.68
2017-09-19T19:43:54.297Z,7.17
2017-09-19T19:46:23.489Z,7.90
2017-09-19T19:48:51.337Z,6.67
2017-09-19T19:51:18.808Z,4.10
2017-09-19T19:53:46.254Z,3.97
2017-09-19T19:56:13.730Z,4.77
2017-09-19T19:58:41.178Z,4.87
2017-09-19T20:01:08.637Z,4.53
2017-09-19T20:03:36.091Z,3.60
2017-09-19T20:06:03.554Z,4.30
2017-09-19T20:08:31.004Z,4.17
2017-09-19T20:10:58.514Z,4.40
2017-09-19T20:13:26.724Z,4.40
2017-09-19T20:15:54.186Z,4.57
2017-09-19T20:18:21.643Z,4.47
2017-09-19T20:20:49.090Z,5.83
2017-09-19T20:23:16.549Z,4.87
2017-09-19T20:25:44.006Z,5.97
2017-09-19T20:28:11.461Z,6.30
2017-09-19T20:30:38.920Z,6.65
2017-09-19T20:33:06.405Z,5.95
2017-09-19T20:35:33.972Z,6.27
2017-09-19T20:38:01.434Z,6.37
2017-09-19T20:40:28.890Z,7.83
2017-09-19T20:42:56.349Z,6.80
2017-09-19T20:45:23.806Z,7.90
2017-09-19T20:47:51.291Z,6.07
2017-09-19T20:50:18.757Z,6.35
2017-09-19T20:52:46.210Z,6.63
2017-09-19T20:55:13.662Z,6.43
2017-09-19T20:57:41.146Z,4.97
2017-09-19T21:00:08.602Z,5.60
2017-09-19T21:02:36.068Z,5.20
2017-09-19T21:05:09.298Z,5.03
2017-09-19T21:07:42.474Z,5.30
2017-09-19T21:10:15.715Z,4.70
2017-09-19T21:12:48.909Z,4.80
2017-09-19T21:15:22.099Z,4.70
2017-09-19T21:17:55.242Z,4.70
2017-09-19T21:20:22.197Z,5.70
2017-09-19T21:22:49.670Z,6.07
2017-09-19T21:25:17.890Z,5.13
2017-09-19T21:27:45.341Z,5.80
2017-09-19T21:30:12.797Z,5.93
2017-09-19T21:32:40.258Z,4.90
2017-09-19T21:35:07.741Z,5.10
2017-09-19T21:37:35.214Z,4.30
2017-09-19T21:40:02.671Z,5.20
2017-09-19T21:42:30.214Z,4.50
2017-09-19T21:44:57.676Z,4.50
2017-09-19T21:47:25.134Z,6.53
2017-09-19T21:49:52.594Z,5.00
2017-09-19T21:52:20.050Z,6.10
2017-09-19T21:54:47.512Z,6.20
2017-09-19T21:57:14.970Z,5.70
2017-09-19T22:02:38.537Z,6.70
2017-09-19T22:05:05.995Z,5.70
2017-09-19T22:07:33.464Z,5.80
2017-09-19T22:10:00.922Z,6.60
2017-09-19T22:12:28.389Z,6.53
2017-09-19T22:14:56.615Z,5.93
2017-09-19T22:17:24.078Z,5.95
2017-09-19T22:19:51.538Z,6.77
2017-09-19T22:22:18.994Z,6.37
2017-09-19T22:24:47.217Z,6.07
2017-09-19T22:27:15.431Z,5.40
2017-09-19T22:29:42.890Z,6.57
2017-09-19T22:32:10.334Z,8.30
2017-09-19T22:34:37.806Z,7.90
2017-09-19T22:37:05.265Z,6.30
2017-09-19T22:39:32.751Z,8.70
2017-09-19T22:42:00.205Z,8.30
2017-09-19T22:44:27.666Z,7.03
2017-09-19T22:46:55.126Z,7.87
2017-09-19T22:49:22.597Z,6.40
2017-09-19T22:51:50.062Z,7.60
2017-09-19T22:54:18.287Z,8.00
2017-09-19T22:56:45.747Z,7.23
2017-09-19T22:59:13.214Z,7.97
2017-09-19T23:01:40.657Z,6.93
2017-09-19T23:04:08.517Z,7.30
2017-09-19T23:06:35.992Z,6.73
2017-09-19T23:09:03.440Z,7.47
2017-09-19T23:11:30.901Z,6.90
2017-09-19T23:13:58.357Z,5.97
2017-09-19T23:16:25.929Z,6.47
2017-09-19T23:18:53.383Z,7.33
2017-09-19T23:21:20.853Z,7.25
2017-09-19T23:23:48.409Z,7.35
2017-09-19T23:26:15.866Z,7.20
2017-09-19T23:28:43.321Z,6.72
2017-09-19T23:31:10.781Z,7.60
2017-09-19T23:33:38.336Z,6.47
2017-09-19T23:36:05.813Z,7.15
2017-09-19T23:38:33.257Z,7.43
2017-09-19T23:41:00.718Z,6.97
2017-09-19T23:43:28.179Z,7.03
2017-09-19T23:45:55.638Z,6.30
2017-09-19T23:48:23.092Z,5.57
2017-09-19T23:50:50.539Z,6.40
2017-09-19T23:53:18.087Z,7.60
2017-09-19T23:55:45.548Z,7.62
2017-09-19T23:58:12.998Z,8.00
